sensor_id;sensor_type;location;lat;lon;timestamp;P1;durP1;ratioP1;P2;durP2;ratioP2
39694;SDS011;25367;-35.352;149.036;2024-03-07T00:01:13;7.53;;;3.83;;
39694;SDS011;25367;-35.352;149.036;2024-03-07T00:03:42;8.13;;;3.35;;
39694;SDS011;25367;-35.352;149.036;2024-03-07T00:06:12;7.13;;;3.35;;
39694;SDS011;25367;-35.352;149.036;2024-03-07T00:08:41;8.93;;;3.92;;
39694;SDS011;25367;-35.352;149.036;2024-03-07T00:11:14;7.93;;;3.60;;
39694;SDS011;25367;-35.352;149.036;2024-03-07T00:13:43;7.53;;;4.00;;
39694;SDS011;25367;-35.352;149.036;2024-03-07T00:16:12;9.05;;;4.28;;
39694;SDS011;25367;-35.352;149.036;2024-03-07T00:18:42;7.35;;;4.10;;
39694;SDS011;25367;-35.352;149.036;2024-03-07T00:21:11;8.60;;;3.75;;
39694;SDS011;25367;-35.352;149.036;2024-03-07T00:23:41;9.65;;;3.78;;
39694;SDS011;25367;-35.352;149.036;2024-03-07T00:26:12;14.55;;;3.88;;
39694;SDS011;25367;-35.352;149.036;2024-03-07T00:28:41;7.68;;;3.45;;
39694;SDS011;25367;-35.352;149.036;2024-03-07T00:31:10;5.68;;;3.17;;
39694;SDS011;25367;-35.352;149.036;2024-03-07T00:33:40;7.80;;;3.60;;
39694;SDS011;25367;-35.352;149.036;2024-03-07T00:36:09;6.07;;;3.30;;
39694;SDS011;25367;-35.352;149.036;2024-03-07T00:38:39;8.45;;;4.68;;
39694;SDS011;25367;-35.352;149.036;2024-03-07T00:41:08;9.70;;;3.75;;
39694;SDS011;25367;-35.352;149.036;2024-03-07T00:43:39;9.23;;;4.20;;
39694;SDS011;25367;-35.352;149.036;2024-03-07T00:46:09;9.00;;;4.22;;
39694;SDS011;25367;-35.352;149.036;2024-03-07T00:48:38;8.43;;;3.15;;
39694;SDS011;25367;-35.352;149.036;2024-03-07T00:51:08;7.78;;;3.35;;
39694;SDS011;25367;-35.352;149.036;2024-03-07T00:53:37;8.63;;;4.00;;
39694;SDS011;25367;-35.352;149.036;2024-03-07T00:56:07;6.80;;;3.45;;
39694;SDS011;25367;-35.352;149.036;2024-03-07T00:58:39;8.70;;;2.72;;
39694;SDS011;25367;-35.352;149.036;2024-03-07T01:01:09;10.30;;;3.92;;
39694;SDS011;25367;-35.352;149.036;2024-03-07T01:03:38;12.65;;;3.45;;
39694;SDS011;25367;-35.352;149.036;2024-03-07T01:06:07;7.03;;;2.85;;
39694;SDS011;25367;-35.352;149.036;2024-03-07T01:08:37;10.05;;;3.05;;
39694;SDS011;25367;-35.352;149.036;2024-03-07T01:11:06;7.70;;;3.10;;
39694;SDS011;25367;-35.352;149.036;2024-03-07T01:13:36;7.85;;;2.80;;
39694;SDS011;25367;-35.352;149.036;2024-03-07T01:16:09;9.85;;;3.05;;
39694;SDS011;25367;-35.352;149.036;2024-03-07T01:18:38;8.27;;;3.30;;
39694;SDS011;25367;-35.352;149.036;2024-03-07T01:21:08;7.70;;;3.28;;
39694;SDS011;25367;-35.352;149.036;2024-03-07T01:23:38;7.50;;;3.10;;
39694;SDS011;25367;-35.352;149.036;2024-03-07T01:26:07;6.28;;;3.22;;
39694;SDS011;25367;-35.352;149.036;2024-03-07T01:28:36;9.20;;;3.17;;
39694;SDS011;25367;-35.352;149.036;2024-03-07T01:31:09;6.75;;;3.33;;
39694;SDS011;25367;-35.352;149.036;2024-03-07T01:33:38;5.68;;;3.10;;
39694;SDS011;25367;-35.352;149.036;2024-03-07T01:36:08;7.10;;;3.35;;
39694;SDS011;25367;-35.352;149.036;2024-03-07T01:38:38;7.40;;;3.35;;
39694;SDS011;25367;-35.352;149.036;2024-03-07T01:41:08;7.72;;;2.85;;
39694;SDS011;25367;-35.352;149.036;2024-03-07T01:43:39;4.82;;;2.70;;
39694;SDS011;25367;-35.352;149.036;2024-03-07T01:46:10;6.47;;;3.13;;
39694;SDS011;25367;-35.352;149.036;2024-03-07T01:48:40;8.70;;;2.85;;
39694;SDS011;25367;-35.352;149.036;2024-03-07T01:51:10;5.97;;;2.60;;
39694;SDS011;25367;-35.352;149.036;2024-03-07T01:53:41;8.93;;;3.08;;
39694;SDS011;25367;-35.352;149.036;2024-03-07T01:56:11;8.45;;;3.22;;
39694;SDS011;25367;-35.352;149.036;2024-03-07T01:58:44;9.32;;;2.80;;
39694;SDS011;25367;-35.352;149.036;2024-03-07T02:01:17;8.82;;;2.75;;
39694;SDS011;25367;-35.352;149.036;2024-03-07T02:03:48;8.65;;;2.97;;
39694;SDS011;25367;-35.352;149.036;2024-03-07T02:06:18;8.18;;;2.97;;
39694;SDS011;25367;-35.352;149.036;2024-03-07T02:08:48;8.88;;;3.35;;
39694;SDS011;25367;-35.352;149.036;2024-03-07T02:11:18;11.95;;;2.78;;
39694;SDS011;25367;-35.352;149.036;2024-03-07T02:13:50;6.13;;;2.92;;
39694;SDS011;25367;-35.352;149.036;2024-03-07T02:16:21;4.20;;;2.63;;
39694;SDS011;25367;-35.352;149.036;2024-03-07T02:18:51;8.80;;;3.03;;
39694;SDS011;25367;-35.352;149.036;2024-03-07T02:21:24;10.38;;;3.03;;
39694;SDS011;25367;-35.352;149.036;2024-03-07T02:23:54;7.47;;;2.57;;
39694;SDS011;25367;-35.352;149.036;2024-03-07T02:26:24;8.07;;;2.67;;
39694;SDS011;25367;-35.352;149.036;2024-03-07T02:28:54;8.98;;;2.80;;
39694;SDS011;25367;-35.352;149.036;2024-03-07T02:31:24;5.25;;;2.22;;
39694;SDS011;25367;-35.352;149.036;2024-03-07T02:33:54;7.95;;;2.97;;
39694;SDS011;25367;-35.352;149.036;2024-03-07T02:36:26;8.65;;;2.67;;
39694;SDS011;25367;-35.352;149.036;2024-03-07T02:38:56;8.27;;;3.00;;
39694;SDS011;25367;-35.352;149.036;2024-03-07T02:41:26;6.15;;;2.80;;
39694;SDS011;25367;-35.352;149.036;2024-03-07T02:43:56;10.10;;;2.63;;
39694;SDS011;25367;-35.352;149.036;2024-03-07T02:46:26;4.80;;;2.28;;
39694;SDS011;25367;-35.352;149.036;2024-03-07T02:48:56;6.95;;;2.22;;
39694;SDS011;25367;-35.352;149.036;2024-03-07T02:51:29;5.10;;;1.75;;
39694;SDS011;25367;-35.352;149.036;2024-03-07T02:53:59;2.50;;;1.60;;
39694;SDS011;25367;-35.352;149.036;2024-03-07T02:56:29;3.35;;;1.45;;
39694;SDS011;25367;-35.352;149.036;2024-03-07T02:58:58;3.92;;;2.03;;
39694;SDS011;25367;-35.352;149.036;2024-03-07T03:01:28;3.10;;;1.48;;
39694;SDS011;25367;-35.352;149.036;2024-03-07T03:03:57;2.70;;;1.45;;
39694;SDS011;25367;-35.352;149.036;2024-03-07T03:06:29;3.33;;;1.73;;
39694;SDS011;25367;-35.352;149.036;2024-03-07T03:08:59;3.83;;;1.42;;
39694;SDS011;25367;-35.352;149.036;2024-03-07T03:11:29;3.55;;;1.80;;
39694;SDS011;25367;-35.352;149.036;2024-03-07T03:13:58;3.03;;;1.33;;
39694;SDS011;25367;-35.352;149.036;2024-03-07T03:16:28;4.40;;;1.40;;
39694;SDS011;25367;-35.352;149.036;2024-03-07T03:18:58;3.53;;;1.90;;
39694;SDS011;25367;-35.352;149.036;2024-03-07T03:21:30;4.45;;;2.00;;
39694;SDS011;25367;-35.352;149.036;2024-03-07T03:24:00;2.83;;;1.90;;
39694;SDS011;25367;-35.352;149.036;2024-03-07T03:26:31;4.75;;;1.70;;
39694;SDS011;25367;-35.352;149.036;2024-03-07T03:29:00;6.35;;;2.05;;
39694;SDS011;25367;-35.352;149.036;2024-03-07T03:31:30;7.32;;;2.25;;
39694;SDS011;25367;-35.352;149.036;2024-03-07T03:34:03;3.90;;;1.60;;
39694;SDS011;25367;-35.352;149.036;2024-03-07T03:36:35;4.90;;;1.83;;
39694;SDS011;25367;-35.352;149.036;2024-03-07T03:39:04;7.55;;;1.92;;
39694;SDS011;25367;-35.352;149.036;2024-03-07T03:41:34;11.45;;;2.33;;
39694;SDS011;25367;-35.352;149.036;2024-03-07T03:44:03;10.45;;;2.10;;
39694;SDS011;25367;-35.352;149.036;2024-03-07T03:46:34;5.70;;;2.08;;
39694;SDS011;25367;-35.352;149.036;2024-03-07T03:49:04;7.70;;;2.13;;
39694;SDS011;25367;-35.352;149.036;2024-03-07T03:51:35;7.20;;;2.03;;
39694;SDS011;25367;-35.352;149.036;2024-03-07T03:54:05;5.40;;;1.65;;
39694;SDS011;25367;-35.352;149.036;2024-03-07T03:56:34;4.13;;;1.60;;
39694;SDS011;25367;-35.352;149.036;2024-03-07T03:59:04;4.85;;;1.95;;
39694;SDS011;25367;-35.352;149.036;2024-03-07T04:01:33;5.30;;;2.25;;
39694;SDS011;25367;-35.352;149.036;2024-03-07T04:04:03;11.00;;;1.85;;
39694;SDS011;25367;-35.352;149.036;2024-03-07T04:06:32;3.78;;;1.92;;
39694;SDS011;25367;-35.352;149.036;2024-03-07T04:09:04;6.18;;;2.15;;
39694;SDS011;25367;-35.352;149.036;2024-03-07T04:11:33;11.20;;;1.92;;
39694;SDS011;25367;-35.352;149.036;2024-03-07T04:14:03;7.68;;;2.13;;
39694;SDS011;25367;-35.352;149.036;2024-03-07T04:16:32;4.68;;;2.00;;
39694;SDS011;25367;-35.352;149.036;2024-03-07T04:19:01;4.13;;;1.73;;
39694;SDS011;25367;-35.352;149.036;2024-03-07T04:21:31;4.82;;;1.80;;
39694;SDS011;25367;-35.352;149.036;2024-03-07T04:24:02;4.25;;;1.80;;
39694;SDS011;25367;-35.352;149.036;2024-03-07T04:26:32;4.55;;;2.00;;
39694;SDS011;25367;-35.352;149.036;2024-03-07T04:29:01;6.22;;;1.63;;
39694;SDS011;25367;-35.352;149.036;2024-03-07T04:31:31;3.88;;;1.60;;
39694;SDS011;25367;-35.352;149.036;2024-03-07T04:34:00;4.03;;;1.65;;
39694;SDS011;25367;-35.352;149.036;2024-03-07T04:36:30;3.47;;;1.55;;
39694;SDS011;25367;-35.352;149.036;2024-03-07T04:38:59;6.50;;;2.10;;
39694;SDS011;25367;-35.352;149.036;2024-03-07T04:41:30;3.00;;;1.60;;
39694;SDS011;25367;-35.352;149.036;2024-03-07T04:43:59;6.28;;;1.80;;
39694;SDS011;25367;-35.352;149.036;2024-03-07T04:46:29;4.95;;;1.67;;
39694;SDS011;25367;-35.352;149.036;2024-03-07T04:48:58;3.20;;;1.73;;
39694;SDS011;25367;-35.352;149.036;2024-03-07T04:51:28;3.80;;;1.88;;
39694;SDS011;25367;-35.352;149.036;2024-03-07T04:53:57;3.20;;;1.48;;
39694;SDS011;25367;-35.352;149.036;2024-03-07T04:56:29;5.95;;;1.80;;
39694;SDS011;25367;-35.352;149.036;2024-03-07T04:58:58;4.22;;;1.40;;
39694;SDS011;25367;-35.352;149.036;2024-03-07T05:01:28;5.97;;;1.85;;
39694;SDS011;25367;-35.352;149.036;2024-03-07T05:03:58;3.65;;;1.42;;
39694;SDS011;25367;-35.352;149.036;2024-03-07T05:06:27;6.75;;;1.70;;
39694;SDS011;25367;-35.352;149.036;2024-03-07T05:08:57;7.40;;;1.60;;
39694;SDS011;25367;-35.352;149.036;2024-03-07T05:11:29;4.10;;;1.45;;
39694;SDS011;25367;-35.352;149.036;2024-03-07T05:13:58;4.25;;;1.50;;
39694;SDS011;25367;-35.352;149.036;2024-03-07T05:16:30;3.00;;;1.35;;
39694;SDS011;25367;-35.352;149.036;2024-03-07T05:18:59;3.47;;;1.23;;
39694;SDS011;25367;-35.352;149.036;2024-03-07T05:21:29;2.67;;;1.45;;
39694;SDS011;25367;-35.352;149.036;2024-03-07T05:23:59;3.63;;;1.70;;
39694;SDS011;25367;-35.352;149.036;2024-03-07T05:26:30;4.20;;;1.52;;
39694;SDS011;25367;-35.352;149.036;2024-03-07T05:29:01;4.20;;;1.50;;
39694;SDS011;25367;-35.352;149.036;2024-03-07T05:31:31;6.05;;;1.38;;
39694;SDS011;25367;-35.352;149.036;2024-03-07T05:34:00;2.70;;;1.38;;
39694;SDS011;25367;-35.352;149.036;2024-03-07T05:36:31;5.32;;;2.00;;
39694;SDS011;25367;-35.352;149.036;2024-03-07T05:39:00;4.57;;;1.63;;
39694;SDS011;25367;-35.352;149.036;2024-03-07T05:41:32;2.28;;;1.20;;
39694;SDS011;25367;-35.352;149.036;2024-03-07T05:44:01;5.15;;;1.52;;
39694;SDS011;25367;-35.352;149.036;2024-03-07T05:46:30;4.72;;;1.52;;
39694;SDS011;25367;-35.352;149.036;2024-03-07T05:49:00;3.83;;;1.27;;
39694;SDS011;25367;-35.352;149.036;2024-03-07T05:51:29;3.35;;;1.30;;
39694;SDS011;25367;-35.352;149.036;2024-03-07T05:53:59;3.55;;;1.50;;
39694;SDS011;25367;-35.352;149.036;2024-03-07T05:56:28;4.35;;;1.20;;
39694;SDS011;25367;-35.352;149.036;2024-03-07T05:59:00;2.75;;;1.45;;
39694;SDS011;25367;-35.352;149.036;2024-03-07T06:01:29;5.28;;;1.30;;
39694;SDS011;25367;-35.352;149.036;2024-03-07T06:03:59;2.75;;;1.30;;
39694;SDS011;25367;-35.352;149.036;2024-03-07T06:06:28;3.22;;;1.35;;
39694;SDS011;25367;-35.352;149.036;2024-03-07T06:08:58;2.72;;;1.23;;
39694;SDS011;25367;-35.352;149.036;2024-03-07T06:11:28;2.90;;;1.23;;
39694;SDS011;25367;-35.352;149.036;2024-03-07T06:13:59;2.60;;;1.20;;
39694;SDS011;25367;-35.352;149.036;2024-03-07T06:16:28;2.15;;;1.25;;
39694;SDS011;25367;-35.352;149.036;2024-03-07T06:18:59;5.45;;;1.75;;
39694;SDS011;25367;-35.352;149.036;2024-03-07T06:21:28;5.05;;;1.33;;
39694;SDS011;25367;-35.352;149.036;2024-03-07T06:23:58;6.65;;;1.83;;
39694;SDS011;25367;-35.352;149.036;2024-03-07T06:26:30;3.92;;;1.50;;
39694;SDS011;25367;-35.352;149.036;2024-03-07T06:29:01;7.18;;;1.67;;
39694;SDS011;25367;-35.352;149.036;2024-03-07T06:31:31;9.30;;;1.92;;
39694;SDS011;25367;-35.352;149.036;2024-03-07T06:34:01;4.85;;;1.40;;
39694;SDS011;25367;-35.352;149.036;2024-03-07T06:36:30;5.65;;;1.30;;
39694;SDS011;25367;-35.352;149.036;2024-03-07T06:38:59;8.05;;;1.67;;
39694;SDS011;25367;-35.352;149.036;2024-03-07T06:41:29;9.73;;;1.80;;
39694;SDS011;25367;-35.352;149.036;2024-03-07T06:44:00;8.48;;;1.80;;
39694;SDS011;25367;-35.352;149.036;2024-03-07T06:46:30;8.90;;;1.58;;
39694;SDS011;25367;-35.352;149.036;2024-03-07T06:49:00;6.50;;;1.13;;
39694;SDS011;25367;-35.352;149.036;2024-03-07T06:51:29;5.30;;;1.25;;
39694;SDS011;25367;-35.352;149.036;2024-03-07T06:53:59;4.38;;;1.38;;
39694;SDS011;25367;-35.352;149.036;2024-03-07T06:56:28;3.10;;;1.20;;
39694;SDS011;25367;-35.352;149.036;2024-03-07T06:58:57;4.00;;;1.10;;
39694;SDS011;25367;-35.352;149.036;2024-03-07T07:01:29;4.20;;;1.10;;
39694;SDS011;25367;-35.352;149.036;2024-03-07T07:03:58;2.95;;;1.00;;
39694;SDS011;25367;-35.352;149.036;2024-03-07T07:06:27;5.90;;;0.90;;
39694;SDS011;25367;-35.352;149.036;2024-03-07T07:08:57;2.13;;;1.02;;
39694;SDS011;25367;-35.352;149.036;2024-03-07T07:11:26;1.30;;;1.00;;
39694;SDS011;25367;-35.352;149.036;2024-03-07T07:13:56;4.05;;;0.90;;
39694;SDS011;25367;-35.352;149.036;2024-03-07T07:16:27;2.17;;;1.05;;
39694;SDS011;25367;-35.352;149.036;2024-03-07T07:18:56;2.47;;;0.90;;
39694;SDS011;25367;-35.352;149.036;2024-03-07T07:21:26;3.40;;;1.25;;
39694;SDS011;25367;-35.352;149.036;2024-03-07T07:23:55;2.42;;;1.20;;
39694;SDS011;25367;-35.352;149.036;2024-03-07T07:26:25;4.30;;;0.90;;
39694;SDS011;25367;-35.352;149.036;2024-03-07T07:28:54;4.57;;;1.55;;
39694;SDS011;25367;-35.352;149.036;2024-03-07T07:31:24;3.40;;;1.20;;
39694;SDS011;25367;-35.352;149.036;2024-03-07T07:33:57;4.00;;;1.20;;
39694;SDS011;25367;-35.352;149.036;2024-03-07T07:36:26;4.80;;;1.20;;
39694;SDS011;25367;-35.352;149.036;2024-03-07T07:38:55;2.25;;;1.02;;
39694;SDS011;25367;-35.352;149.036;2024-03-07T07:41:25;4.05;;;1.27;;
39694;SDS011;25367;-35.352;149.036;2024-03-07T07:43:54;4.57;;;1.40;;
39694;SDS011;25367;-35.352;149.036;2024-03-07T07:46:24;5.95;;;1.42;;
39694;SDS011;25367;-35.352;149.036;2024-03-07T07:48:55;9.88;;;1.58;;
39694;SDS011;25367;-35.352;149.036;2024-03-07T07:51:24;6.63;;;1.40;;
39694;SDS011;25367;-35.352;149.036;2024-03-07T07:53:54;5.78;;;1.40;;
39694;SDS011;25367;-35.352;149.036;2024-03-07T07:56:23;7.32;;;1.45;;
39694;SDS011;25367;-35.352;149.036;2024-03-07T07:58:53;7.07;;;1.50;;
39694;SDS011;25367;-35.352;149.036;2024-03-07T08:01:22;5.07;;;1.45;;
39694;SDS011;25367;-35.352;149.036;2024-03-07T08:03:53;5.50;;;1.52;;
39694;SDS011;25367;-35.352;149.036;2024-03-07T08:06:23;7.65;;;1.73;;
39694;SDS011;25367;-35.352;149.036;2024-03-07T08:08:52;14.68;;;1.83;;
39694;SDS011;25367;-35.352;149.036;2024-03-07T08:11:21;12.70;;;2.17;;
39694;SDS011;25367;-35.352;149.036;2024-03-07T08:13:51;5.65;;;1.83;;
39694;SDS011;25367;-35.352;149.036;2024-03-07T08:16:20;9.95;;;2.50;;
39694;SDS011;25367;-35.352;149.036;2024-03-07T08:18:50;9.20;;;3.03;;
39694;SDS011;25367;-35.352;149.036;2024-03-07T08:21:22;9.43;;;3.40;;
39694;SDS011;25367;-35.352;149.036;2024-03-07T08:23:51;12.52;;;3.88;;
39694;SDS011;25367;-35.352;149.036;2024-03-07T08:26:21;11.43;;;3.35;;
39694;SDS011;25367;-35.352;149.036;2024-03-07T08:28:50;11.00;;;3.08;;
39694;SDS011;25367;-35.352;149.036;2024-03-07T08:31:20;12.75;;;3.00;;
39694;SDS011;25367;-35.352;149.036;2024-03-07T08:33:49;12.18;;;4.03;;
39694;SDS011;25367;-35.352;149.036;2024-03-07T08:36:20;14.13;;;4.47;;
39694;SDS011;25367;-35.352;149.036;2024-03-07T08:38:50;12.85;;;4.43;;
39694;SDS011;25367;-35.352;149.036;2024-03-07T08:41:19;10.85;;;3.53;;
39694;SDS011;25367;-35.352;149.036;2024-03-07T08:43:48;12.45;;;3.88;;
39694;SDS011;25367;-35.352;149.036;2024-03-07T08:46:18;10.63;;;3.05;;
39694;SDS011;25367;-35.352;149.036;2024-03-07T08:48:47;9.05;;;3.38;;
39694;SDS011;25367;-35.352;149.036;2024-03-07T08:51:16;11.45;;;3.45;;
39694;SDS011;25367;-35.352;149.036;2024-03-07T08:53:48;18.65;;;4.57;;
39694;SDS011;25367;-35.352;149.036;2024-03-07T08:56:17;9.65;;;3.88;;
39694;SDS011;25367;-35.352;149.036;2024-03-07T08:58:47;16.20;;;4.88;;
39694;SDS011;25367;-35.352;149.036;2024-03-07T09:01:16;13.90;;;4.32;;
39694;SDS011;25367;-35.352;149.036;2024-03-07T09:03:46;11.95;;;3.55;;
39694;SDS011;25367;-35.352;149.036;2024-03-07T09:06:15;10.88;;;3.50;;
39694;SDS011;25367;-35.352;149.036;2024-03-07T09:08:44;13.25;;;3.90;;
39694;SDS011;25367;-35.352;149.036;2024-03-07T09:11:16;11.95;;;4.10;;
39694;SDS011;25367;-35.352;149.036;2024-03-07T09:13:45;12.35;;;4.40;;
39694;SDS011;25367;-35.352;149.036;2024-03-07T09:16:15;9.88;;;3.63;;
39694;SDS011;25367;-35.352;149.036;2024-03-07T09:18:44;12.35;;;4.15;;
39694;SDS011;25367;-35.352;149.036;2024-03-07T09:21:13;11.13;;;3.92;;
39694;SDS011;25367;-35.352;149.036;2024-03-07T09:23:43;9.73;;;4.10;;
39694;SDS011;25367;-35.352;149.036;2024-03-07T09:26:15;10.00;;;4.40;;
39694;SDS011;25367;-35.352;149.036;2024-03-07T09:28:44;11.40;;;4.47;;
39694;SDS011;25367;-35.352;149.036;2024-03-07T09:31:15;13.80;;;4.70;;
39694;SDS011;25367;-35.352;149.036;2024-03-07T09:33:45;10.88;;;4.72;;
39694;SDS011;25367;-35.352;149.036;2024-03-07T09:36:14;11.15;;;5.47;;
39694;SDS011;25367;-35.352;149.036;2024-03-07T09:38:44;16.92;;;7.05;;
39694;SDS011;25367;-35.352;149.036;2024-03-07T09:41:17;23.55;;;9.73;;
39694;SDS011;25367;-35.352;149.036;2024-03-07T09:43:47;20.17;;;11.82;;
39694;SDS011;25367;-35.352;149.036;2024-03-07T09:46:19;23.03;;;14.20;;
39694;SDS011;25367;-35.352;149.036;2024-03-07T09:48:49;25.38;;;17.08;;
39694;SDS011;25367;-35.352;149.036;2024-03-07T09:51:19;28.65;;;17.05;;
39694;SDS011;25367;-35.352;149.036;2024-03-07T09:53:51;30.70;;;17.10;;
39694;SDS011;25367;-35.352;149.036;2024-03-07T09:56:27;29.92;;;19.35;;
39694;SDS011;25367;-35.352;149.036;2024-03-07T09:58:58;30.25;;;19.30;;
39694;SDS011;25367;-35.352;149.036;2024-03-07T10:01:29;26.80;;;17.85;;
39694;SDS011;25367;-35.352;149.036;2024-03-07T10:04:01;24.92;;;16.10;;
39694;SDS011;25367;-35.352;149.036;2024-03-07T10:06:33;26.27;;;14.80;;
39694;SDS011;25367;-35.352;149.036;2024-03-07T10:09:02;23.58;;;13.93;;
39694;SDS011;25367;-35.352;149.036;2024-03-07T10:11:34;20.13;;;12.32;;
39694;SDS011;25367;-35.352;149.036;2024-03-07T10:14:04;18.33;;;10.93;;
39694;SDS011;25367;-35.352;149.036;2024-03-07T10:16:34;20.77;;;10.65;;
39694;SDS011;25367;-35.352;149.036;2024-03-07T10:19:04;20.02;;;9.52;;
39694;SDS011;25367;-35.352;149.036;2024-03-07T10:21:34;17.08;;;8.25;;
39694;SDS011;25367;-35.352;149.036;2024-03-07T10:24:04;17.75;;;7.53;;
39694;SDS011;25367;-35.352;149.036;2024-03-07T10:26:38;14.73;;;8.02;;
39694;SDS011;25367;-35.352;149.036;2024-03-07T10:29:08;14.77;;;7.35;;
39694;SDS011;25367;-35.352;149.036;2024-03-07T10:31:38;11.25;;;6.00;;
39694;SDS011;25367;-35.352;149.036;2024-03-07T10:34:08;16.95;;;7.03;;
39694;SDS011;25367;-35.352;149.036;2024-03-07T10:36:38;12.73;;;7.30;;
39694;SDS011;25367;-35.352;149.036;2024-03-07T10:39:08;15.30;;;6.32;;
39694;SDS011;25367;-35.352;149.036;2024-03-07T10:41:44;16.60;;;7.78;;
39694;SDS011;25367;-35.352;149.036;2024-03-07T10:44:18;17.15;;;6.78;;
39694;SDS011;25367;-35.352;149.036;2024-03-07T10:46:52;13.98;;;6.85;;
39694;SDS011;25367;-35.352;149.036;2024-03-07T10:49:23;13.20;;;6.75;;
39694;SDS011;25367;-35.352;149.036;2024-03-07T10:52:00;13.63;;;6.95;;
39694;SDS011;25367;-35.352;149.036;2024-03-07T10:54:34;12.68;;;6.63;;
39694;SDS011;25367;-35.352;149.036;2024-03-07T10:57:15;15.45;;;6.07;;
39694;SDS011;25367;-35.352;149.036;2024-03-07T10:59:49;13.57;;;5.50;;
39694;SDS011;25367;-35.352;149.036;2024-03-07T11:02:27;11.32;;;5.35;;
39694;SDS011;25367;-35.352;149.036;2024-03-07T11:05:01;10.18;;;4.97;;
39694;SDS011;25367;-35.352;149.036;2024-03-07T11:07:32;13.90;;;5.43;;
39694;SDS011;25367;-35.352;149.036;2024-03-07T11:10:02;12.00;;;5.53;;
39694;SDS011;25367;-35.352;149.036;2024-03-07T11:12:35;11.90;;;4.80;;
39694;SDS011;25367;-35.352;149.036;2024-03-07T11:15:07;10.50;;;5.20;;
39694;SDS011;25367;-35.352;149.036;2024-03-07T11:17:38;9.73;;;4.30;;
39694;SDS011;25367;-35.352;149.036;2024-03-07T11:20:19;12.52;;;4.55;;
39694;SDS011;25367;-35.352;149.036;2024-03-07T11:22:50;11.73;;;4.78;;
39694;SDS011;25367;-35.352;149.036;2024-03-07T11:25:21;8.15;;;4.55;;
39694;SDS011;25367;-35.352;149.036;2024-03-07T11:27:58;10.05;;;4.63;;
39694;SDS011;25367;-35.352;149.036;2024-03-07T11:30:29;13.80;;;5.20;;
39694;SDS011;25367;-35.352;149.036;2024-03-07T11:33:01;10.00;;;4.60;;
39694;SDS011;25367;-35.352;149.036;2024-03-07T11:35:34;8.40;;;4.70;;
39694;SDS011;25367;-35.352;149.036;2024-03-07T11:38:06;13.07;;;5.00;;
39694;SDS011;25367;-35.352;149.036;2024-03-07T11:40:50;13.00;;;3.65;;
39694;SDS011;25367;-35.352;149.036;2024-03-07T11:43:24;7.35;;;3.88;;
39694;SDS011;25367;-35.352;149.036;2024-03-07T11:45:57;13.90;;;4.53;;
39694;SDS011;25367;-35.352;149.036;2024-03-07T11:48:28;9.23;;;4.28;;
39694;SDS011;25367;-35.352;149.036;2024-03-07T11:50:58;8.32;;;3.95;;
39694;SDS011;25367;-35.352;149.036;2024-03-07T11:53:28;9.32;;;3.72;;
39694;SDS011;25367;-35.352;149.036;2024-03-07T11:55:59;10.05;;;4.18;;
39694;SDS011;25367;-35.352;149.036;2024-03-07T11:58:32;10.30;;;4.25;;
39694;SDS011;25367;-35.352;149.036;2024-03-07T12:01:05;10.32;;;4.18;;
39694;SDS011;25367;-35.352;149.036;2024-03-07T12:03:36;9.25;;;4.20;;
39694;SDS011;25367;-35.352;149.036;2024-03-07T12:06:08;10.63;;;4.20;;
39694;SDS011;25367;-35.352;149.036;2024-03-07T12:08:38;8.25;;;3.75;;
39694;SDS011;25367;-35.352;149.036;2024-03-07T12:11:08;8.55;;;3.58;;
39694;SDS011;25367;-35.352;149.036;2024-03-07T12:13:40;8.70;;;3.83;;
39694;SDS011;25367;-35.352;149.036;2024-03-07T12:16:09;8.52;;;3.65;;
39694;SDS011;25367;-35.352;149.036;2024-03-07T12:18:39;8.75;;;3.85;;
39694;SDS011;25367;-35.352;149.036;2024-03-07T12:21:10;8.82;;;3.97;;
39694;SDS011;25367;-35.352;149.036;2024-03-07T12:23:40;10.18;;;4.07;;
39694;SDS011;25367;-35.352;149.036;2024-03-07T12:26:10;11.20;;;4.63;;
39694;SDS011;25367;-35.352;149.036;2024-03-07T12:28:42;8.45;;;3.67;;
39694;SDS011;25367;-35.352;149.036;2024-03-07T12:31:11;9.60;;;4.22;;
39694;SDS011;25367;-35.352;149.036;2024-03-07T12:33:41;7.22;;;3.58;;
